Current Weather

NSFA McMurdo Sound

NSFA McMurdo Sound, Antarctica (NZCM)

Report from: Sunday, June 26, 2022 4:55 PM UTC
Current time: Sunday, June 26, 2022 5:34 PM UTC

Nearby weather
Weather history
Weather forecast

Temperature-31.3°C (-24.3°F)
Wind chill-45.9°C (-50.5°F)
Dew point-40.9°C (-41.6°F)
Winds 13 kts (6.7 m/s, 15 mph) Vrb
Wind gusts 25 kts (12.9 m/s, 28.8 mph)
Winds variableWinds variable from North-Northeast (30°) to East (100°)
Peak wind 27 kts (13.9 m/s, 31.1 mph) East-Northeast (60°) at 11:24
Visibility6.2 mi. (10 km)
Clouds Sky clear
Altimeter29.31 in.Hg (993 mB)
Relative humidity38 %
Density altitude-5,356 ft. (-1,632 m)
Sea-level pressure99.3 kPa (993 mB, 29.34 in.Hg)
Remarks Fully automated report
System requires maintenance
Automated weather observing station with precipitation discriminator
Flight conditions Visual Meteorological Conditions
Raw dataNZCM 261655Z AUTO 06013G25KT 030V100 9999 CLR M31/M41 A2931 RMK AO2 PK WND 06027/1624 SLP934 T13131409 $
An error has occurred. This application may no longer respond until reloaded. Reload 🗙